createdAt,value
2018-02-09T00:00:19.400Z,137.40
2018-02-09T00:02:48.653Z,147.48
2018-02-09T00:05:17.877Z,148.93
2018-02-09T00:07:47.230Z,142.95
2018-02-09T00:10:16.624Z,138.75
2018-02-09T00:12:45.899Z,124.80
2018-02-09T00:15:15.312Z,127.90
2018-02-09T00:17:44.575Z,135.35
2018-02-09T00:20:13.792Z,141.80
2018-02-09T00:22:48.997Z,144.27
2018-02-09T00:25:18.303Z,139.82
2018-02-09T00:27:47.549Z,135.25
2018-02-09T00:30:16.821Z,152.35
2018-02-09T00:32:46.144Z,139.85
2018-02-09T00:35:15.369Z,147.82
2018-02-09T00:37:44.608Z,127.85
2018-02-09T00:40:13.851Z,128.48
2018-02-09T00:42:43.056Z,133.15
2018-02-09T00:45:12.289Z,127.65
2018-02-09T00:47:41.533Z,129.98
2018-02-09T00:50:10.743Z,125.68
2018-02-09T00:52:39.992Z,130.23
2018-02-09T00:55:09.208Z,142.30
2018-02-09T00:57:38.468Z,119.93
2018-02-09T01:00:07.717Z,127.10
2018-02-09T01:02:36.939Z,122.37
2018-02-09T01:05:06.157Z,135.85
2018-02-09T01:07:35.389Z,130.05
2018-02-09T01:10:04.613Z,133.57
2018-02-09T01:12:33.857Z,132.45
2018-02-09T01:15:03.140Z,124.70
2018-02-09T01:17:32.370Z,136.68
2018-02-09T01:20:01.590Z,154.05
2018-02-09T01:22:30.805Z,156.43
2018-02-09T01:25:00.071Z,150.30
2018-02-09T01:27:29.024Z,151.77
2018-02-09T01:29:58.047Z,140.25
2018-02-09T01:32:27.091Z,118.60
2018-02-09T01:34:56.142Z,123.03
2018-02-09T01:37:27.084Z,124.43
2018-02-09T01:39:56.153Z,133.10
2018-02-09T01:42:25.373Z,137.62
2018-02-09T01:44:54.530Z,119.05
2018-02-09T01:47:23.652Z,139.80
2018-02-09T01:49:58.859Z,123.97
2018-02-09T01:52:28.035Z,142.48
2018-02-09T01:54:57.195Z,126.87
2018-02-09T01:57:26.370Z,129.45
2018-02-09T01:59:55.585Z,124.70
2018-02-09T02:02:24.736Z,131.95
2018-02-09T02:04:53.895Z,126.07
2018-02-09T02:07:23.063Z,137.57
2018-02-09T02:09:52.103Z,121.00
2018-02-09T02:12:21.163Z,132.63
2018-02-09T02:14:50.250Z,137.27
2018-02-09T02:17:19.437Z,131.68
2018-02-09T02:19:48.589Z,125.38
2018-02-09T02:22:17.773Z,127.45
2018-02-09T02:24:46.987Z,133.85
2018-02-09T02:27:16.213Z,133.35
2018-02-09T02:29:45.425Z,138.25
2018-02-09T02:32:14.678Z,117.90
2018-02-09T02:34:43.933Z,130.80
2018-02-09T02:37:13.152Z,127.38
2018-02-09T02:39:42.378Z,134.23
2018-02-09T02:42:11.739Z,121.43
2018-02-09T02:44:40.981Z,121.75
2018-02-09T02:47:10.207Z,132.60
2018-02-09T02:49:39.447Z,130.82
2018-02-09T02:52:08.669Z,146.40
2018-02-09T02:54:37.907Z,140.62
2018-02-09T02:57:07.157Z,124.50
2018-02-09T02:59:36.412Z,128.87
2018-02-09T03:02:05.665Z,120.32
2018-02-09T03:04:34.888Z,132.95
2018-02-09T03:07:04.140Z,122.65
2018-02-09T03:09:33.392Z,118.55
2018-02-09T03:12:02.686Z,125.47
2018-02-09T03:14:32.100Z,122.87
2018-02-09T03:17:01.322Z,116.93
2018-02-09T03:19:30.541Z,115.60
2018-02-09T03:21:59.836Z,133.25
2018-02-09T03:24:29.072Z,126.87
2018-02-09T03:26:58.283Z,120.53
2018-02-09T03:29:27.733Z,129.18
2018-02-09T03:31:56.986Z,115.78
2018-02-09T03:34:26.212Z,123.53
2018-02-09T03:36:55.437Z,133.12
2018-02-09T03:39:24.745Z,131.77
2018-02-09T03:41:53.963Z,123.57
2018-02-09T03:44:23.188Z,132.65
2018-02-09T03:46:52.416Z,137.07
2018-02-09T03:49:21.642Z,138.45
2018-02-09T03:51:50.858Z,126.07
2018-02-09T03:54:20.088Z,125.57
2018-02-09T03:56:49.435Z,129.93
2018-02-09T03:59:18.651Z,122.40
2018-02-09T04:01:47.899Z,129.35
2018-02-09T04:04:17.110Z,127.65
2018-02-09T04:06:46.324Z,121.82
2018-02-09T04:09:15.572Z,121.50
2018-02-09T04:11:44.791Z,120.68
2018-02-09T04:14:14.024Z,115.53
2018-02-09T04:16:43.236Z,125.85
2018-02-09T04:19:12.500Z,117.05
2018-02-09T04:21:41.717Z,122.68
2018-02-09T04:24:10.988Z,118.55
2018-02-09T04:26:40.231Z,120.62
2018-02-09T04:29:09.458Z,129.65
2018-02-09T04:31:38.759Z,126.12
2018-02-09T04:34:08.005Z,128.38
2018-02-09T04:36:37.268Z,129.98
2018-02-09T04:39:06.590Z,128.50
2018-02-09T04:41:35.815Z,105.37
2018-02-09T04:44:05.052Z,112.55
2018-02-09T04:46:34.286Z,112.22
2018-02-09T04:49:03.501Z,115.12
2018-02-09T04:51:32.728Z,129.48
2018-02-09T04:54:01.956Z,111.93
2018-02-09T04:56:31.235Z,120.72
2018-02-09T04:59:00.453Z,125.03
2018-02-09T05:01:29.663Z,113.37
2018-02-09T05:03:58.894Z,107.87
2018-02-09T05:06:28.128Z,128.82
2018-02-09T05:08:57.379Z,117.43
2018-02-09T05:11:26.593Z,135.93
2018-02-09T05:13:56.148Z,120.35
2018-02-09T05:16:25.356Z,118.78
2018-02-09T05:18:54.608Z,109.47
2018-02-09T05:21:23.852Z,120.90
2018-02-09T05:23:53.079Z,124.72
2018-02-09T05:26:22.315Z,117.40
2018-02-09T05:28:51.551Z,115.40
2018-02-09T05:31:21.094Z,123.50
2018-02-09T05:33:50.358Z,108.53
2018-02-09T05:36:19.565Z,127.53
2018-02-09T05:38:48.792Z,120.18
2018-02-09T05:41:18.047Z,123.53
2018-02-09T05:43:47.286Z,118.57
2018-02-09T05:46:16.520Z,132.37
2018-02-09T05:48:45.724Z,128.75
2018-02-09T05:51:14.985Z,132.27
2018-02-09T05:53:44.206Z,120.20
2018-02-09T05:56:13.574Z,134.68
2018-02-09T05:58:42.991Z,120.90
2018-02-09T06:01:12.213Z,119.55
2018-02-09T06:03:41.436Z,130.12
2018-02-09T06:06:10.652Z,127.57
2018-02-09T06:08:39.881Z,121.70
2018-02-09T06:11:09.097Z,114.03
2018-02-09T06:13:38.360Z,126.10
2018-02-09T06:16:07.587Z,122.37
2018-02-09T06:18:36.825Z,130.18
2018-02-09T06:21:06.096Z,123.38
2018-02-09T06:23:35.315Z,112.47
2018-02-09T06:26:04.553Z,113.80
2018-02-09T06:28:33.765Z,122.43
2018-02-09T06:31:03.055Z,117.07
2018-02-09T06:33:32.268Z,124.95
2018-02-09T06:36:01.618Z,120.13
2018-02-09T06:38:31.133Z,116.18
2018-02-09T06:41:00.692Z,122.78
2018-02-09T06:43:29.933Z,116.50
2018-02-09T06:45:59.204Z,120.60
2018-02-09T06:48:28.450Z,106.07
2018-02-09T06:50:57.668Z,128.20
2018-02-09T06:53:26.936Z,119.60
2018-02-09T06:55:56.153Z,111.07
2018-02-09T06:58:25.608Z,136.60
2018-02-09T07:00:54.824Z,122.50
2018-02-09T07:03:24.049Z,126.72
2018-02-09T07:05:53.456Z,124.47
2018-02-09T07:08:22.738Z,126.03
2018-02-09T07:10:51.959Z,124.07
2018-02-09T07:13:21.182Z,116.10
2018-02-09T07:15:50.397Z,123.45
2018-02-09T07:18:20.031Z,122.57
2018-02-09T07:20:49.251Z,126.82
2018-02-09T07:23:18.532Z,123.53
2018-02-09T07:25:47.759Z,126.93
2018-02-09T07:28:17.020Z,135.20
2018-02-09T07:30:46.239Z,135.85
2018-02-09T07:33:15.463Z,122.32
2018-02-09T07:35:44.684Z,122.87
2018-02-09T07:38:13.935Z,115.85
2018-02-09T07:40:43.171Z,125.85
2018-02-09T07:43:12.445Z,114.80
2018-02-09T07:45:41.644Z,122.20
2018-02-09T07:48:10.877Z,123.43
2018-02-09T07:50:40.120Z,131.55
2018-02-09T07:53:09.339Z,122.70
2018-02-09T07:55:38.571Z,128.38
2018-02-09T07:58:07.944Z,116.90
2018-02-09T08:00:37.196Z,118.95
2018-02-09T08:03:06.408Z,116.05
2018-02-09T08:05:35.879Z,117.70
2018-02-09T08:08:05.130Z,117.82
2018-02-09T08:10:34.347Z,118.20
2018-02-09T08:13:03.590Z,113.85
2018-02-09T08:15:32.905Z,119.62
2018-02-09T08:18:02.151Z,121.87
2018-02-09T08:20:31.373Z,115.65
2018-02-09T08:23:00.605Z,112.28
2018-02-09T08:25:29.851Z,120.70
2018-02-09T08:27:59.103Z,112.82
2018-02-09T08:30:28.355Z,110.20
2018-02-09T08:32:57.616Z,114.40
2018-02-09T08:35:26.841Z,116.07
2018-02-09T08:37:56.060Z,109.95
2018-02-09T08:40:25.317Z,109.50
2018-02-09T08:42:54.565Z,110.85
2018-02-09T08:45:23.799Z,108.07
2018-02-09T08:47:53.021Z,102.30
2018-02-09T08:50:22.271Z,110.30
2018-02-09T08:52:51.486Z,116.65
2018-02-09T08:55:20.699Z,110.90
2018-02-09T08:57:50.020Z,106.85
2018-02-09T09:00:19.241Z,103.38
2018-02-09T09:02:48.473Z,110.70
2018-02-09T09:05:17.706Z,104.35
2018-02-09T09:07:46.929Z,103.60
2018-02-09T09:10:16.185Z,112.43
2018-02-09T09:12:45.452Z,113.43
2018-02-09T09:15:14.789Z,118.87
2018-02-09T09:17:45.223Z,115.78
2018-02-09T09:20:14.452Z,107.05
2018-02-09T09:22:43.779Z,99.13
2018-02-09T09:25:13.000Z,103.05
2018-02-09T09:27:42.224Z,100.87
2018-02-09T09:30:11.473Z,104.40
2018-02-09T09:32:40.697Z,108.22
2018-02-09T09:35:09.912Z,92.28
2018-02-09T09:37:39.127Z,101.40
2018-02-09T09:40:08.352Z,102.78
2018-02-09T09:42:37.609Z,101.00
2018-02-09T09:45:06.908Z,89.70
2018-02-09T09:47:36.156Z,112.05
2018-02-09T09:50:05.384Z,102.32
2018-02-09T09:52:34.608Z,99.62
2018-02-09T09:55:03.839Z,105.47
2018-02-09T09:57:33.199Z,93.80
2018-02-09T10:00:02.431Z,98.57
2018-02-09T10:02:37.593Z,90.72
2018-02-09T10:05:06.808Z,91.30
2018-02-09T10:07:36.039Z,79.37
2018-02-09T10:10:05.275Z,86.45
2018-02-09T10:12:34.499Z,86.80
2018-02-09T10:15:03.717Z,87.00
2018-02-09T10:17:32.943Z,83.47
2018-02-09T10:20:02.197Z,89.53
2018-02-09T10:22:31.422Z,96.85
2018-02-09T10:25:00.646Z,93.93
2018-02-09T10:27:29.905Z,88.93
2018-02-09T10:29:59.157Z,99.37
2018-02-09T10:32:28.437Z,93.50
2018-02-09T10:34:57.777Z,100.75
2018-02-09T10:37:27.070Z,98.65
2018-02-09T10:39:56.322Z,91.60
2018-02-09T10:42:25.576Z,103.22
2018-02-09T10:44:54.855Z,101.87
2018-02-09T10:47:24.084Z,110.72
2018-02-09T10:49:53.320Z,95.93
2018-02-09T10:52:22.540Z,101.32
2018-02-09T10:54:51.756Z,97.70
2018-02-09T10:57:21.014Z,97.75
2018-02-09T10:59:50.448Z,87.65
2018-02-09T11:02:19.690Z,94.13
2018-02-09T11:04:48.924Z,102.35
2018-02-09T11:07:18.242Z,108.97
2018-02-09T11:09:47.476Z,94.25
2018-02-09T11:12:16.692Z,95.47
2018-02-09T11:14:45.985Z,102.30
2018-02-09T11:17:15.259Z,104.75
2018-02-09T11:19:45.368Z,111.30
2018-02-09T11:22:14.672Z,100.90
2018-02-09T11:24:43.904Z,109.45
2018-02-09T11:27:13.178Z,102.87
2018-02-09T11:29:42.422Z,102.22
2018-02-09T11:32:11.659Z,96.43
2018-02-09T11:34:40.884Z,107.32
2018-02-09T11:37:10.179Z,96.53
2018-02-09T11:39:39.420Z,109.72
2018-02-09T11:42:08.745Z,102.53
2018-02-09T11:44:38.062Z,109.82
2018-02-09T11:47:07.275Z,93.57
2018-02-09T11:49:36.493Z,104.10
2018-02-09T11:52:05.817Z,116.22
2018-02-09T11:54:35.031Z,104.18
2018-02-09T11:57:04.353Z,122.53
2018-02-09T11:59:33.599Z,113.50
2018-02-09T12:02:02.848Z,110.72
2018-02-09T12:04:32.100Z,116.57
2018-02-09T12:07:01.348Z,98.95
2018-02-09T12:09:30.616Z,93.47
2018-02-09T12:11:59.846Z,97.40
2018-02-09T12:14:29.087Z,136.70
2018-02-09T12:16:58.321Z,101.30
2018-02-09T12:19:27.547Z,104.18
2018-02-09T12:21:56.834Z,90.35
2018-02-09T12:24:26.076Z,114.72
2018-02-09T12:26:55.299Z,123.70
2018-02-09T12:29:24.618Z,97.07
2018-02-09T12:31:53.938Z,99.18
2018-02-09T12:34:23.222Z,103.85
2018-02-09T12:36:52.456Z,98.57
2018-02-09T12:39:21.676Z,108.57
2018-02-09T12:41:50.971Z,99.60
2018-02-09T12:44:20.209Z,101.10
2018-02-09T12:46:49.435Z,95.22
2018-02-09T12:49:18.650Z,88.15
2018-02-09T12:51:47.952Z,88.25
2018-02-09T12:54:17.160Z,85.75
2018-02-09T12:56:46.387Z,85.65
2018-02-09T12:59:15.611Z,87.10
2018-02-09T13:01:44.885Z,74.40
2018-02-09T13:04:14.153Z,83.93
2018-02-09T13:06:43.392Z,78.97
2018-02-09T13:09:12.616Z,81.80
2018-02-09T13:11:41.926Z,72.55
2018-02-09T13:14:11.222Z,76.97
2018-02-09T13:16:40.493Z,69.95
2018-02-09T13:19:09.734Z,68.82
2018-02-09T13:21:39.010Z,70.72
2018-02-09T13:24:14.103Z,79.78
2018-02-09T13:26:43.497Z,73.03
2018-02-09T13:29:12.701Z,72.22
2018-02-09T13:31:41.977Z,69.05
2018-02-09T13:34:11.328Z,75.80
2018-02-09T13:36:55.446Z,66.25
2018-02-09T13:39:24.680Z,70.82
2018-02-09T13:41:53.954Z,69.15
2018-02-09T13:44:23.181Z,68.82
2018-02-09T13:46:52.447Z,65.53
2018-02-09T13:49:21.807Z,64.15
2018-02-09T13:51:51.073Z,73.85
2018-02-09T13:54:20.641Z,69.68
2018-02-09T13:56:52.317Z,65.12
2018-02-09T13:59:22.855Z,57.10
2018-02-09T14:01:52.651Z,58.03
2018-02-09T14:04:22.601Z,69.25
2018-02-09T14:06:52.245Z,64.50
2018-02-09T14:09:21.669Z,67.10
2018-02-09T14:11:51.039Z,62.85
2018-02-09T14:14:20.305Z,73.25
2018-02-09T14:16:49.525Z,69.07
2018-02-09T14:19:18.855Z,61.25
2018-02-09T14:24:45.100Z,60.17
2018-02-09T14:27:14.428Z,62.40
2018-02-09T14:29:43.681Z,67.78
2018-02-09T14:32:12.930Z,52.25
2018-02-09T14:34:42.181Z,50.63
2018-02-09T14:37:12.292Z,55.12
2018-02-09T14:39:41.582Z,55.88
2018-02-09T14:42:10.804Z,55.58
2018-02-09T14:44:40.071Z,57.05
2018-02-09T14:47:09.302Z,64.05
2018-02-09T14:49:38.524Z,64.97
2018-02-09T14:52:07.769Z,57.60
2018-02-09T14:54:36.991Z,65.62
2018-02-09T14:57:06.196Z,54.90
2018-02-09T14:59:35.416Z,69.55
2018-02-09T15:02:04.720Z,56.88
2018-02-09T15:04:33.965Z,68.05
2018-02-09T15:07:03.250Z,73.12
2018-02-09T15:09:32.472Z,77.00
2018-02-09T15:12:01.783Z,71.37
2018-02-09T15:14:31.275Z,70.75
2018-02-09T15:17:00.612Z,67.20
2018-02-09T15:19:29.841Z,69.45
2018-02-09T15:21:59.130Z,82.90
2018-02-09T15:24:28.503Z,91.32
2018-02-09T15:26:57.732Z,79.68
2018-02-09T15:29:26.945Z,76.03
2018-02-09T15:31:56.188Z,74.45
2018-02-09T15:34:25.420Z,85.57
2018-02-09T15:36:54.632Z,82.97
2018-02-09T15:39:23.878Z,78.87
2018-02-09T15:41:53.098Z,86.85
2018-02-09T15:44:22.317Z,84.80
2018-02-09T15:46:51.561Z,86.93
2018-02-09T15:49:20.795Z,80.05
2018-02-09T15:51:50.021Z,78.15
2018-02-09T15:54:19.277Z,83.80
2018-02-09T15:56:48.507Z,153.15
2018-02-09T15:59:18.407Z,79.97
2018-02-09T16:01:48.085Z,84.70
2018-02-09T16:04:17.638Z,82.68
2018-02-09T16:06:47.680Z,89.95
2018-02-09T16:09:16.952Z,79.20
2018-02-09T16:11:46.498Z,85.00
2018-02-09T16:14:15.808Z,88.43
2018-02-09T16:16:45.205Z,79.60
2018-02-09T16:19:14.646Z,89.00
2018-02-09T16:21:44.744Z,94.65
2018-02-09T16:24:15.403Z,80.53
2018-02-09T16:26:44.702Z,91.50
2018-02-09T16:29:13.951Z,85.10
2018-02-09T16:37:29.557Z,83.37
2018-02-09T16:39:58.788Z,82.95
2018-02-09T16:42:28.057Z,86.87
2018-02-09T16:44:57.482Z,84.10
2018-02-09T16:47:27.118Z,70.65
2018-02-09T16:49:56.452Z,82.00
2018-02-09T16:52:25.666Z,76.45
2018-02-09T16:54:54.877Z,82.82
2018-02-09T16:57:24.117Z,82.97
2018-02-09T16:59:53.451Z,80.18
2018-02-09T17:02:23.412Z,94.55
2018-02-09T17:04:52.645Z,83.60
2018-02-09T17:07:21.862Z,88.12
2018-02-09T17:09:52.270Z,89.35
2018-02-09T17:12:21.593Z,84.20
2018-02-09T17:14:50.827Z,89.57
2018-02-09T17:17:20.037Z,81.85
2018-02-09T17:19:49.255Z,76.60
2018-02-09T17:22:18.539Z,85.47
2018-02-09T17:24:47.805Z,78.57
2018-02-09T17:27:17.017Z,85.62
2018-02-09T17:29:46.271Z,74.43
2018-02-09T17:32:15.491Z,79.53
2018-02-09T17:34:44.705Z,89.62
2018-02-09T17:37:13.945Z,82.22
2018-02-09T17:39:43.174Z,83.10
2018-02-09T17:42:12.442Z,82.75
2018-02-09T17:44:41.664Z,85.82
2018-02-09T17:47:11.665Z,92.12
2018-02-09T17:49:40.880Z,96.57
2018-02-09T17:52:11.008Z,97.72
2018-02-09T17:54:40.231Z,85.95
2018-02-09T17:57:09.443Z,84.15
2018-02-09T17:59:38.868Z,89.70
2018-02-09T18:02:08.080Z,79.25
2018-02-09T18:04:37.296Z,82.05
2018-02-09T18:07:06.533Z,87.43
2018-02-09T18:09:35.749Z,103.55
2018-02-09T18:12:04.990Z,96.82
2018-02-09T18:14:34.229Z,88.85
2018-02-09T18:17:03.442Z,86.75
2018-02-09T18:19:32.664Z,81.32
2018-02-09T18:22:01.950Z,88.60
2018-02-09T18:24:31.178Z,81.25
2018-02-09T18:27:00.524Z,83.40
2018-02-09T18:29:29.754Z,85.65
2018-02-09T18:31:58.989Z,83.60
2018-02-09T18:34:28.200Z,87.47
2018-02-09T18:36:57.424Z,79.28
2018-02-09T18:39:26.717Z,68.32
2018-02-09T18:41:56.031Z,84.07
2018-02-09T18:44:25.252Z,74.12
2018-02-09T18:46:54.496Z,85.90
2018-02-09T18:49:23.921Z,82.22
2018-02-09T18:51:53.136Z,90.75
2018-02-09T18:54:22.366Z,89.95
2018-02-09T18:56:51.589Z,87.47
2018-02-09T18:59:20.877Z,83.25
2018-02-09T19:01:50.093Z,88.10
2018-02-09T19:04:19.347Z,85.43
2018-02-09T19:06:48.664Z,94.18
2018-02-09T19:09:17.918Z,84.37
2018-02-09T19:11:47.151Z,87.35
2018-02-09T19:14:16.845Z,88.40
2018-02-09T19:16:46.133Z,81.37
2018-02-09T19:19:15.376Z,86.87
2018-02-09T19:21:44.595Z,78.82
2018-02-09T19:27:12.551Z,87.85
2018-02-09T19:32:30.258Z,86.55
2018-02-09T19:34:59.595Z,89.18
2018-02-09T19:37:28.832Z,90.68
2018-02-09T19:39:58.050Z,96.87
2018-02-09T19:42:28.234Z,93.57
2018-02-09T19:44:57.663Z,103.30
2018-02-09T19:47:26.924Z,90.25
2018-02-09T19:49:56.389Z,91.87
2018-02-09T19:52:25.650Z,105.65
2018-02-09T19:54:54.868Z,85.80
2018-02-09T19:57:24.113Z,96.40
2018-02-09T19:59:53.328Z,116.22
2018-02-09T20:02:22.532Z,91.95
2018-02-09T20:04:51.802Z,75.43
2018-02-09T20:07:21.511Z,84.78
2018-02-09T20:09:50.749Z,72.62
2018-02-09T20:12:19.965Z,89.03
2018-02-09T20:14:49.182Z,75.28
2018-02-09T20:17:18.415Z,86.57
2018-02-09T20:19:47.623Z,90.57
2018-02-09T20:22:16.840Z,78.55
2018-02-09T20:24:46.056Z,82.88
2018-02-09T20:27:15.288Z,96.37
2018-02-09T20:29:44.521Z,84.30
2018-02-09T20:32:13.768Z,94.55
2018-02-09T20:34:43.020Z,81.40
2018-02-09T20:37:12.258Z,87.78
2018-02-09T20:39:41.541Z,91.18
2018-02-09T20:42:10.763Z,82.18
2018-02-09T20:44:40.224Z,78.65
2018-02-09T20:47:09.495Z,89.62
2018-02-09T20:49:38.703Z,84.00
2018-02-09T20:52:07.924Z,83.20
2018-02-09T20:54:37.144Z,77.62
2018-02-09T20:57:06.408Z,86.20
2018-02-09T20:59:35.665Z,89.37
2018-02-09T21:02:05.356Z,83.57
2018-02-09T21:04:34.605Z,82.50
2018-02-09T21:07:03.853Z,88.47
2018-02-09T21:09:33.126Z,92.37
2018-02-09T21:12:02.339Z,89.15
2018-02-09T21:14:31.595Z,92.55
2018-02-09T21:17:00.808Z,88.55
2018-02-09T21:19:30.034Z,88.03
2018-02-09T21:21:59.310Z,94.35
2018-02-09T21:24:28.539Z,103.55
2018-02-09T21:26:57.760Z,97.95
2018-02-09T21:29:27.049Z,97.28
2018-02-09T21:31:57.040Z,90.22
2018-02-09T21:34:26.411Z,88.68
2018-02-09T21:36:55.619Z,86.45
2018-02-09T21:39:25.729Z,89.03
2018-02-09T21:41:54.947Z,93.82
2018-02-09T21:44:24.368Z,90.97
2018-02-09T21:46:53.616Z,84.95
2018-02-09T21:49:22.843Z,97.68
2018-02-09T21:51:52.098Z,83.85
2018-02-09T21:54:21.308Z,96.22
2018-02-09T21:56:51.328Z,82.90
2018-02-09T21:59:20.540Z,91.40
2018-02-09T22:01:49.775Z,85.87
2018-02-09T22:04:19.019Z,91.53
2018-02-09T22:06:48.234Z,85.35
2018-02-09T22:09:18.341Z,88.05
2018-02-09T22:11:47.569Z,100.62
2018-02-09T22:14:16.784Z,85.85
2018-02-09T22:16:46.840Z,100.43
2018-02-09T22:19:16.715Z,93.40
2018-02-09T22:21:45.940Z,97.70
2018-02-09T22:24:16.764Z,108.75
2018-02-09T22:26:46.050Z,93.85
2018-02-09T22:29:15.449Z,100.43
2018-02-09T22:31:44.719Z,92.43
2018-02-09T22:34:13.964Z,91.12
2018-02-09T22:36:43.186Z,90.93
2018-02-09T22:39:12.440Z,89.35
2018-02-09T22:41:41.692Z,95.03
2018-02-09T22:44:10.905Z,95.82
2018-02-09T22:46:41.353Z,107.03
2018-02-09T22:49:10.580Z,107.80
2018-02-09T22:51:39.843Z,102.12
2018-02-09T22:54:09.056Z,90.90
2018-02-09T22:56:38.310Z,106.12
2018-02-09T22:59:07.518Z,87.57
2018-02-09T23:01:36.920Z,98.35
2018-02-09T23:04:06.135Z,89.20
2018-02-09T23:06:35.347Z,79.40
2018-02-09T23:09:04.640Z,87.68
2018-02-09T23:11:33.853Z,84.30
2018-02-09T23:14:03.056Z,92.55
2018-02-09T23:16:32.282Z,93.80
2018-02-09T23:19:01.499Z,93.87
2018-02-09T23:21:30.724Z,98.32
2018-02-09T23:23:59.932Z,81.57
2018-02-09T23:26:29.232Z,86.43
2018-02-09T23:28:58.555Z,89.25
2018-02-09T23:31:30.576Z,93.45
2018-02-09T23:33:59.815Z,97.43
2018-02-09T23:36:29.107Z,82.20
2018-02-09T23:38:58.362Z,87.97
2018-02-09T23:41:27.587Z,88.55
2018-02-09T23:43:56.916Z,91.40
2018-02-09T23:46:26.222Z,104.35
2018-02-09T23:48:55.571Z,98.15
2018-02-09T23:51:25.390Z,85.47
2018-02-09T23:53:54.591Z,85.50
2018-02-09T23:56:23.802Z,92.37
2018-02-09T23:58:53.048Z,89.37
